This is the latest recevied weather packets stored in our database for station/object IW2OBX-10. If no packets are shown the sender has not sent any weather packets the latest 10 day(s).
| Time | Temp. | Humidity | Pressure | Rain* | Wind** | Luminosity | Snow |
|---|---|---|---|---|---|---|---|
| 1777709440 | 26.11° C | 30% | 1026 hPa | - | - | - | - |
| 1777708540 | 27.22° C | 32% | 1026.1 hPa | - | - | - | - |
| 1777707639 | 24.44° C | 36% | 1026.3 hPa | - | - | - | - |
| 1777706738 | 24.44° C | 36% | 1026.4 hPa | - | - | - | - |
| 1777705837 | 22.78° C | 41% | 1026.6 hPa | - | - | - | - |
| 1777704937 | 21.11° C | 43% | 1026.7 hPa | - | - | - | - |
| 1777704036 | 20° C | 46% | 1026.7 hPa | - | - | - | - |
| 1777703135 | 22.22° C | 42% | 1026.7 hPa | - | - | - | - |
| 1777702234 | 20.56° C | 45% | 1026.8 hPa | - | - | - | - |
| 1777701333 | 20.56° C | 46% | 1026.7 hPa | - | - | - | - |
| 1777700433 | 19.44° C | 49% | 1027 hPa | - | - | - | - |
| 1777699531 | 17.22° C | 56% | 1027 hPa | - | - | - | - |
| 1777698630 | 12.22° C | 72% | 1027.3 hPa | - | - | - | - |
| 1777697730 | 11.67° C | 72% | 1027.1 hPa | - | - | - | - |
| 1777696829 | 11.67° C | 73% | 1027.2 hPa | - | - | - | - |
| 1777695928 | 11.11° C | 72% | 1027.1 hPa | - | - | - | - |
| 1777695027 | 11.11° C | 71% | 1027.1 hPa | - | - | - | - |
| 1777694126 | 11.11° C | 71% | 1027 hPa | - | - | - | - |
| 1777693226 | 11.11° C | 71% | 1027 hPa | - | - | - | - |
| 1777692325 | 11.11° C | 71% | 1027 hPa | - | - | - | - |
| 1777691424 | 11.11° C | 71% | 1026.9 hPa | - | - | - | - |
| 1777690523 | 11.67° C | 69% | 1026.8 hPa | - | - | - | - |
| 1777689622 | 11.11° C | 69% | 1026.9 hPa | - | - | - | - |
| 1777688722 | 11.11° C | 69% | 1026.9 hPa | - | - | - | - |
| 1777687821 | 11.11° C | 69% | 1026.9 hPa | - | - | - | - |
* Rain since midnight (hover to see other rain measurements)
** Current wind speed in m/s (hover to see current wind gust speed)